createdAt,value
2018-12-22T00:02:08.654Z,97.90
2018-12-22T00:04:37.061Z,98.10
2018-12-22T00:07:05.423Z,98.20
2018-12-22T00:09:33.934Z,98.20
2018-12-22T00:12:02.335Z,98.30
2018-12-22T00:14:30.740Z,98.90
2018-12-22T00:16:59.229Z,99.10
2018-12-22T00:19:27.639Z,99.40
2018-12-22T00:21:56.235Z,99.40
2018-12-22T00:24:24.674Z,99.50
2018-12-22T00:26:53.018Z,99.40
2018-12-22T00:29:21.442Z,98.40
2018-12-22T00:31:49.832Z,97.50
2018-12-22T00:34:18.263Z,97.50
2018-12-22T00:36:46.645Z,97.30
2018-12-22T00:39:15.222Z,97.00
2018-12-22T00:41:43.731Z,96.60
2018-12-22T00:44:12.092Z,96.20
2018-12-22T00:46:40.454Z,96.10
2018-12-22T00:49:08.853Z,95.30
2018-12-22T00:51:37.201Z,94.90
2018-12-22T00:54:05.572Z,94.80
2018-12-22T00:56:34.022Z,94.50
2018-12-22T00:59:02.506Z,94.00
2018-12-22T01:01:31.067Z,93.60
2018-12-22T01:03:59.421Z,93.00
2018-12-22T01:06:27.950Z,92.80
2018-12-22T01:08:56.392Z,92.30
2018-12-22T01:11:25.703Z,92.10
2018-12-22T01:13:54.054Z,92.70
2018-12-22T01:16:25.396Z,92.30
2018-12-22T01:18:53.810Z,92.10
2018-12-22T01:21:22.578Z,91.40
2018-12-22T01:23:50.979Z,91.60
2018-12-22T01:26:19.382Z,91.30
2018-12-22T01:28:47.783Z,91.50
2018-12-22T01:31:16.150Z,91.60
2018-12-22T01:33:44.518Z,91.70
2018-12-22T01:36:13.027Z,91.30
2018-12-22T01:38:41.427Z,91.20
2018-12-22T01:41:09.844Z,91.50
2018-12-22T01:43:38.346Z,91.30
2018-12-22T01:46:06.759Z,91.60
2018-12-22T01:48:35.670Z,91.30
2018-12-22T01:51:04.205Z,91.60
2018-12-22T01:53:32.648Z,91.30
2018-12-22T01:56:01.583Z,91.90
2018-12-22T01:58:29.966Z,91.90
2018-12-22T02:00:58.377Z,92.00
2018-12-22T02:03:26.840Z,92.10
2018-12-22T02:05:55.209Z,92.20
2018-12-22T02:08:23.577Z,92.50
2018-12-22T02:10:51.928Z,92.60
2018-12-22T02:13:20.382Z,93.00
2018-12-22T02:15:48.757Z,93.20
2018-12-22T02:18:17.154Z,94.10
2018-12-22T02:20:52.227Z,94.50
2018-12-22T02:23:20.648Z,95.60
2018-12-22T02:25:49.017Z,96.40
2018-12-22T02:28:17.414Z,96.50
2018-12-22T02:30:45.814Z,97.20
2018-12-22T02:33:14.220Z,97.60
2018-12-22T02:35:42.842Z,97.80
2018-12-22T02:38:11.242Z,98.20
2018-12-22T02:40:40.602Z,98.60
2018-12-22T02:43:08.962Z,98.50
2018-12-22T02:45:37.453Z,99.00
2018-12-22T02:48:05.980Z,99.50
2018-12-22T02:50:34.431Z,99.80
2018-12-22T02:53:02.868Z,99.80
2018-12-22T02:55:31.218Z,99.80
2018-12-22T02:57:59.630Z,99.80
2018-12-22T03:00:28.018Z,99.80
2018-12-22T03:02:56.427Z,99.80
2018-12-22T03:05:24.885Z,99.80
2018-12-22T03:07:53.538Z,99.60
2018-12-22T03:10:22.011Z,99.00
2018-12-22T03:12:50.381Z,98.60
2018-12-22T03:15:19.866Z,98.10
2018-12-22T03:17:48.266Z,97.60
2018-12-22T03:20:16.659Z,97.00
2018-12-22T03:22:45.110Z,96.20
2018-12-22T03:25:13.499Z,95.80
2018-12-22T03:27:41.875Z,94.90
2018-12-22T03:30:10.361Z,94.00
2018-12-22T03:32:38.762Z,93.20
2018-12-22T03:35:07.340Z,93.60
2018-12-22T03:37:35.766Z,93.70
2018-12-22T03:40:05.364Z,93.10
2018-12-22T03:42:33.761Z,93.40
2018-12-22T03:45:02.233Z,93.90
2018-12-22T03:47:30.692Z,93.70
2018-12-22T03:49:59.123Z,92.30
2018-12-22T03:52:27.487Z,92.30
2018-12-22T03:54:57.325Z,92.30
2018-12-22T03:57:25.719Z,92.20
2018-12-22T03:59:54.075Z,92.40
2018-12-22T04:02:22.443Z,91.90
2018-12-22T04:04:50.937Z,91.90
2018-12-22T04:07:19.324Z,92.30
2018-12-22T04:09:47.720Z,92.30
2018-12-22T04:12:16.116Z,92.20
2018-12-22T04:14:44.629Z,91.70
2018-12-22T04:17:12.985Z,91.80
2018-12-22T04:19:41.373Z,91.20
2018-12-22T04:22:09.865Z,91.10
2018-12-22T04:24:38.290Z,90.80
2018-12-22T04:27:06.667Z,91.00
2018-12-22T04:29:35.098Z,91.30
2018-12-22T04:32:03.626Z,90.80
2018-12-22T04:34:32.001Z,91.30
2018-12-22T04:37:00.474Z,91.00
2018-12-22T04:39:28.852Z,90.80
2018-12-22T04:41:57.183Z,90.80
2018-12-22T04:44:25.542Z,90.00
2018-12-22T04:46:53.953Z,90.00
2018-12-22T04:49:22.302Z,89.80
2018-12-22T04:51:50.791Z,89.60
2018-12-22T04:54:19.260Z,90.10
2018-12-22T04:56:47.646Z,90.10
2018-12-22T04:59:16.604Z,90.40
2018-12-22T05:01:45.100Z,90.70
2018-12-22T05:04:13.449Z,90.50
2018-12-22T05:06:41.930Z,90.40
2018-12-22T05:09:11.165Z,90.70
2018-12-22T05:11:39.584Z,91.10
2018-12-22T05:14:07.923Z,91.50
2018-12-22T05:16:36.455Z,91.70
2018-12-22T05:19:04.881Z,91.90
2018-12-22T05:21:33.572Z,92.20
2018-12-22T05:24:01.908Z,92.30
2018-12-22T05:26:30.284Z,92.50
2018-12-22T05:28:58.680Z,92.30
2018-12-22T05:31:27.066Z,92.50
2018-12-22T05:33:55.400Z,92.40
2018-12-22T05:36:23.833Z,92.60
2018-12-22T05:38:52.192Z,92.70
2018-12-22T05:41:20.605Z,93.00
2018-12-22T05:43:48.991Z,93.10
2018-12-22T05:46:17.487Z,93.30
2018-12-22T05:48:45.906Z,93.60
2018-12-22T05:51:14.313Z,93.50
2018-12-22T05:53:42.670Z,93.70
2018-12-22T05:56:11.107Z,93.80
2018-12-22T05:58:39.462Z,94.30
2018-12-22T06:01:07.844Z,94.50
2018-12-22T06:03:36.273Z,94.80
2018-12-22T06:06:04.689Z,95.20
2018-12-22T06:08:33.089Z,95.30
2018-12-22T06:11:01.498Z,95.20
2018-12-22T06:13:29.927Z,94.60
2018-12-22T06:15:58.314Z,93.90
2018-12-22T06:18:26.718Z,93.60
2018-12-22T06:20:55.127Z,93.30
2018-12-22T06:23:23.493Z,93.50
2018-12-22T06:25:51.995Z,93.10
2018-12-22T06:28:20.366Z,93.20
2018-12-22T06:33:16.783Z,92.90
2018-12-22T06:35:45.298Z,92.90
2018-12-22T06:38:13.695Z,93.10
2018-12-22T06:40:42.100Z,92.90
2018-12-22T06:43:10.473Z,92.50
2018-12-22T06:45:38.819Z,92.80
2018-12-22T06:48:07.248Z,92.60
2018-12-22T06:50:35.656Z,91.70
2018-12-22T06:53:04.041Z,91.00
2018-12-22T06:55:32.382Z,90.90
2018-12-22T06:58:00.767Z,90.50
2018-12-22T07:00:29.134Z,90.10
2018-12-22T07:02:57.536Z,90.10
2018-12-22T07:05:26.583Z,90.40
2018-12-22T07:07:54.941Z,90.10
2018-12-22T07:10:25.470Z,89.60
2018-12-22T07:12:53.682Z,89.40
2018-12-22T07:15:22.202Z,89.10
2018-12-22T07:17:50.603Z,89.20
2018-12-22T07:20:18.992Z,89.10
2018-12-22T07:22:47.645Z,89.20
2018-12-22T07:25:16.022Z,89.40
2018-12-22T07:27:44.415Z,89.50
2018-12-22T07:30:12.837Z,88.80
2018-12-22T07:32:41.266Z,88.50
2018-12-22T07:35:09.763Z,88.40
2018-12-22T07:37:38.198Z,88.70
2018-12-22T07:40:06.775Z,88.30
2018-12-22T07:42:35.204Z,88.20
2018-12-22T07:45:03.948Z,88.30
2018-12-22T07:47:32.312Z,88.70
2018-12-22T07:50:00.740Z,88.50
2018-12-22T07:52:29.069Z,88.50
2018-12-22T07:54:58.162Z,88.80
2018-12-22T07:57:26.727Z,88.20
2018-12-22T07:59:55.108Z,88.50
2018-12-22T08:02:23.575Z,88.60
2018-12-22T08:04:52.269Z,88.30
2018-12-22T08:07:21.027Z,88.60
2018-12-22T08:09:49.822Z,88.80
2018-12-22T08:12:18.414Z,89.20
2018-12-22T08:14:47.138Z,88.90
2018-12-22T08:17:15.737Z,89.30
2018-12-22T08:19:44.424Z,89.60
2018-12-22T08:22:13.068Z,89.60
2018-12-22T08:24:41.735Z,89.60
2018-12-22T08:27:10.358Z,89.70
2018-12-22T08:29:39.087Z,89.50
2018-12-22T08:32:08.385Z,89.20
2018-12-22T08:34:39.098Z,89.10
2018-12-22T08:37:07.742Z,88.70
2018-12-22T08:39:37.134Z,88.40
2018-12-22T08:42:05.881Z,87.90
2018-12-22T08:44:34.700Z,88.10
2018-12-22T08:47:06.869Z,87.40
2018-12-22T08:49:37.377Z,87.20
2018-12-22T08:52:07.780Z,86.30
2018-12-22T08:54:38.139Z,86.50
2018-12-22T08:57:08.262Z,86.40
2018-12-22T08:59:37.365Z,86.10
2018-12-22T09:02:07.673Z,85.30
2018-12-22T09:04:37.772Z,85.50
2018-12-22T09:07:06.610Z,85.50
2018-12-22T09:09:38.060Z,84.60
2018-12-22T09:12:07.209Z,84.20
2018-12-22T09:14:36.440Z,84.20
2018-12-22T09:17:07.009Z,84.30
2018-12-22T09:19:35.679Z,84.30
2018-12-22T09:22:07.729Z,83.40
2018-12-22T09:24:46.208Z,83.80
2018-12-22T09:27:20.995Z,84.70
2018-12-22T09:29:53.436Z,86.30
2018-12-22T09:35:09.426Z,91.20
2018-12-22T09:37:41.014Z,93.20
2018-12-22T09:40:11.843Z,97.70
2018-12-22T09:42:40.567Z,99.20
2018-12-22T09:45:09.538Z,99.80
2018-12-22T09:47:38.348Z,99.80
2018-12-22T09:50:10.602Z,99.80
2018-12-22T09:52:39.389Z,99.80
2018-12-22T09:55:08.407Z,99.80
2018-12-22T09:57:37.182Z,99.80
2018-12-22T10:00:08.471Z,99.80
2018-12-22T10:02:37.178Z,99.80
2018-12-22T10:05:08.065Z,99.80
2018-12-22T10:07:37.304Z,99.70
2018-12-22T10:10:10.411Z,99.20
2018-12-22T10:12:39.329Z,99.20
2018-12-22T10:15:08.251Z,98.70
2018-12-22T10:17:37.020Z,99.40
2018-12-22T10:20:06.633Z,99.60
2018-12-22T10:22:36.529Z,99.50
2018-12-22T10:25:08.545Z,98.90
2018-12-22T10:27:37.263Z,99.20
2018-12-22T10:30:09.536Z,98.30
2018-12-22T10:32:38.299Z,97.90
2018-12-22T10:35:09.966Z,98.20
2018-12-22T10:37:38.389Z,98.90
2018-12-22T10:40:07.879Z,98.40
2018-12-22T10:42:37.577Z,98.10
2018-12-22T10:45:06.994Z,96.70
2018-12-22T10:47:35.406Z,94.60
2018-12-22T10:50:04.590Z,94.10
2018-12-22T10:52:33.909Z,93.00
2018-12-22T10:55:02.352Z,94.00
2018-12-22T10:57:30.736Z,93.80
2018-12-22T10:59:59.122Z,93.70
2018-12-22T11:02:28.475Z,94.00
2018-12-22T11:04:56.895Z,94.20
2018-12-22T11:07:25.319Z,94.70
2018-12-22T11:09:53.708Z,94.20
2018-12-22T11:12:22.191Z,91.40
2018-12-22T11:14:50.887Z,88.50
2018-12-22T11:17:19.272Z,89.00
2018-12-22T11:19:47.658Z,89.80
2018-12-22T11:22:16.111Z,90.30
2018-12-22T11:24:46.304Z,90.40
2018-12-22T11:27:14.714Z,90.30
2018-12-22T11:29:46.238Z,88.60
2018-12-22T11:32:14.714Z,88.50
2018-12-22T11:34:43.793Z,89.40
2018-12-22T11:37:12.465Z,88.30
2018-12-22T11:39:40.888Z,87.80
2018-12-22T11:42:09.259Z,87.90
2018-12-22T11:44:37.676Z,87.60
2018-12-22T11:47:13.606Z,88.70
2018-12-22T11:49:43.669Z,89.20
2018-12-22T11:52:18.493Z,90.80
2018-12-22T11:54:47.501Z,93.00
2018-12-22T11:57:16.316Z,94.00
2018-12-22T11:59:48.170Z,95.80
2018-12-22T12:02:16.637Z,97.30
2018-12-22T12:04:45.026Z,96.40
2018-12-22T12:07:13.443Z,96.70
2018-12-22T12:09:41.879Z,94.90
2018-12-22T12:12:10.284Z,95.30
2018-12-22T12:14:38.668Z,95.00
2018-12-22T12:19:17.638Z,93.70
2018-12-22T12:21:46.090Z,93.40
2018-12-22T12:24:15.338Z,75.40
2018-12-22T12:26:44.745Z,62.40
2018-12-22T12:29:13.147Z,55.30
2018-12-22T12:31:41.545Z,50.60
2018-12-22T12:34:09.896Z,48.50
2018-12-22T12:39:28.599Z,57.30
2018-12-22T12:41:56.962Z,62.00
2018-12-22T12:44:25.519Z,68.70
2018-12-22T12:46:55.006Z,74.50
2018-12-22T12:49:23.660Z,75.90
2018-12-22T12:51:52.492Z,78.50
2018-12-22T12:54:21.776Z,79.80
2018-12-22T12:56:54.419Z,83.20
2018-12-22T12:59:23.112Z,84.70
2018-12-22T13:01:51.490Z,85.60
2018-12-22T13:04:20.367Z,85.90
2018-12-22T13:06:48.723Z,85.40
2018-12-22T13:09:18.043Z,85.90
2018-12-22T13:11:46.679Z,85.80
2018-12-22T13:14:18.542Z,84.60
2018-12-22T13:16:46.879Z,84.70
2018-12-22T13:19:15.288Z,83.50
2018-12-22T13:21:47.549Z,82.10
2018-12-22T13:24:18.451Z,81.60
2018-12-22T13:26:46.860Z,82.30
2018-12-22T13:29:15.759Z,83.00
2018-12-22T13:31:45.451Z,81.60
2018-12-22T13:34:14.083Z,82.30
2018-12-22T13:36:43.256Z,84.00
2018-12-22T13:39:31.440Z,81.70
2018-12-22T13:42:02.739Z,82.30
2018-12-22T13:44:32.537Z,82.70
2018-12-22T13:47:02.782Z,82.90
2018-12-22T13:52:16.308Z,82.80
2018-12-22T13:54:50.587Z,83.00
2018-12-22T13:57:19.152Z,83.20
2018-12-22T14:08:40.901Z,84.10
2018-12-22T14:11:09.601Z,84.60
2018-12-22T14:13:39.803Z,84.10
2018-12-22T14:16:15.914Z,83.30
2018-12-22T14:18:55.603Z,83.10
2018-12-22T14:21:27.158Z,82.70
2018-12-22T14:25:01.181Z,82.90
2018-12-22T14:27:30.067Z,82.70
2018-12-22T14:29:58.454Z,83.20
2018-12-22T15:03:53.945Z,84.20
2018-12-22T15:06:22.329Z,83.60
2018-12-22T15:08:50.963Z,83.00
2018-12-22T15:11:20.829Z,82.70
2018-12-22T15:16:33.488Z,82.30
2018-12-22T15:19:02.312Z,83.20
2018-12-22T15:21:30.783Z,83.30
2018-12-22T15:23:59.220Z,83.50
2018-12-22T15:26:27.744Z,83.40
2018-12-22T15:28:56.122Z,83.70
2018-12-22T15:31:25.492Z,83.70
2018-12-22T15:33:54.720Z,83.90
2018-12-22T15:36:24.109Z,84.10
2018-12-22T15:38:52.513Z,84.60
2018-12-22T15:41:20.940Z,84.20
2018-12-22T15:43:53.865Z,83.50
2018-12-22T15:46:22.227Z,83.30
2018-12-22T15:48:50.713Z,83.70
2018-12-22T15:51:19.166Z,83.60
2018-12-22T15:53:48.671Z,83.90
2018-12-22T15:56:17.089Z,83.90
2018-12-22T15:58:45.468Z,84.40
2018-12-22T16:01:13.923Z,84.90
2018-12-22T16:03:42.365Z,85.40
2018-12-22T16:06:10.881Z,85.40
2018-12-22T16:08:41.985Z,85.80
2018-12-22T16:11:10.598Z,85.80
2018-12-22T16:13:41.659Z,86.40
2018-12-22T16:16:10.023Z,86.50
2018-12-22T16:18:38.489Z,86.70
2018-12-22T16:21:07.831Z,86.60
2018-12-22T16:23:36.286Z,86.80
2018-12-22T16:26:05.576Z,87.10
2018-12-22T16:28:40.462Z,87.30
2018-12-22T16:31:09.770Z,87.70
2018-12-22T16:33:39.221Z,88.10
2018-12-22T16:36:07.637Z,88.40
2018-12-22T16:38:36.219Z,88.20
2018-12-22T16:41:04.668Z,88.70
2018-12-22T16:43:33.137Z,88.90
2018-12-22T16:46:01.848Z,89.20
2018-12-22T16:48:30.843Z,89.40
2018-12-22T16:50:59.546Z,89.90
2018-12-22T16:53:28.296Z,89.90
2018-12-22T16:55:57.689Z,90.20
2018-12-22T16:58:30.406Z,90.90
2018-12-22T17:01:37.795Z,91.30
2018-12-22T17:04:06.543Z,91.60
2018-12-22T17:06:35.286Z,92.10
2018-12-22T17:09:04.534Z,92.30
2018-12-22T17:11:33.096Z,92.70
2018-12-22T17:14:02.877Z,92.60
2018-12-22T17:16:32.212Z,92.50
2018-12-22T17:19:00.705Z,93.00
2018-12-22T17:21:36.435Z,93.20
2018-12-22T17:25:14.040Z,93.30
2018-12-22T17:27:42.603Z,93.80
2018-12-22T17:30:12.818Z,93.70
2018-12-22T17:32:42.943Z,93.60
2018-12-22T17:35:17.363Z,93.70
2018-12-22T17:37:45.956Z,93.70
2018-12-22T17:40:16.658Z,93.80
2018-12-22T17:42:45.191Z,93.70
2018-12-22T17:45:14.032Z,93.50
2018-12-22T17:47:42.974Z,93.40
2018-12-22T17:50:11.474Z,92.50
2018-12-22T17:52:39.914Z,92.40
2018-12-22T17:55:13.026Z,92.60
2018-12-22T17:57:42.103Z,92.90
2018-12-22T18:00:12.358Z,92.70
2018-12-22T18:02:42.059Z,93.20
2018-12-22T18:05:10.668Z,93.10
2018-12-22T18:07:39.189Z,93.30
2018-12-22T18:10:10.641Z,92.20
2018-12-22T18:12:41.463Z,91.60
2018-12-22T18:15:13.824Z,91.60
2018-12-22T18:17:43.454Z,91.50
2018-12-22T18:20:13.243Z,90.80
2018-12-22T18:22:41.710Z,91.10
2018-12-22T18:25:11.818Z,92.30
2018-12-22T18:27:40.253Z,91.40
2018-12-22T18:30:10.892Z,90.10
2018-12-22T18:32:39.577Z,89.80
2018-12-22T18:35:09.899Z,90.00
2018-12-22T18:37:38.345Z,90.70
2018-12-22T18:40:11.349Z,90.10
2018-12-22T18:42:39.915Z,90.10
2018-12-22T18:45:10.989Z,89.80
2018-12-22T18:47:39.572Z,89.40
2018-12-22T18:50:13.133Z,89.60
2018-12-22T18:52:41.621Z,89.50
2018-12-22T18:55:10.845Z,90.20
2018-12-22T18:57:39.323Z,90.50
2018-12-22T19:00:14.103Z,90.80
2018-12-22T19:02:42.627Z,91.40
2018-12-22T19:05:11.190Z,91.60
2018-12-22T19:07:39.559Z,91.10
2018-12-22T19:10:13.240Z,91.20
2018-12-22T19:12:41.638Z,91.30
2018-12-22T19:15:10.350Z,91.10
2018-12-22T19:17:38.953Z,92.00
2018-12-22T19:20:11.710Z,92.00
2018-12-22T19:22:40.236Z,92.60
2018-12-22T19:25:08.906Z,92.60
2018-12-22T19:27:37.322Z,92.10
2018-12-22T19:30:06.038Z,91.20
2018-12-22T19:32:34.548Z,91.40
2018-12-22T19:35:03.192Z,91.70
2018-12-22T19:37:31.658Z,91.90
2018-12-22T19:40:00.321Z,92.00
2018-12-22T19:42:28.751Z,92.50
2018-12-22T19:44:57.340Z,91.70
2018-12-22T19:47:26.005Z,91.30
2018-12-22T19:49:54.506Z,91.10
2018-12-22T19:52:23.043Z,90.70
2018-12-22T19:54:51.465Z,89.70
2018-12-22T19:57:20.867Z,88.80
2018-12-22T19:59:49.900Z,89.40
2018-12-22T20:02:18.369Z,89.60
2018-12-22T20:04:46.807Z,89.40
2018-12-22T20:07:15.335Z,88.20
2018-12-22T20:09:43.725Z,89.10
2018-12-22T20:12:12.302Z,88.30
2018-12-22T20:14:40.714Z,88.90
2018-12-22T20:17:09.145Z,89.80
2018-12-22T20:19:37.592Z,89.50
2018-12-22T20:22:06.221Z,89.60
2018-12-22T20:24:34.678Z,88.90
2018-12-22T20:27:03.132Z,88.00
2018-12-22T20:29:31.551Z,87.50
2018-12-22T20:32:00.136Z,87.90
2018-12-22T20:34:28.577Z,87.60
2018-12-22T20:36:56.972Z,86.70
2018-12-22T20:39:25.433Z,87.20
2018-12-22T20:41:53.844Z,87.80
2018-12-22T20:44:22.565Z,87.80
2018-12-22T20:46:51.150Z,88.50
2018-12-22T20:49:19.551Z,88.80
2018-12-22T20:51:48.035Z,88.10
2018-12-22T20:54:16.482Z,89.20
2018-12-22T20:56:45.020Z,88.70
2018-12-22T20:59:13.548Z,88.90
2018-12-22T21:01:41.982Z,89.40
2018-12-22T21:04:10.407Z,89.90
2018-12-22T21:06:38.826Z,89.80
2018-12-22T21:09:08.176Z,89.80
2018-12-22T21:11:38.404Z,90.20
2018-12-22T21:14:07.181Z,90.80
2018-12-22T21:16:36.787Z,91.00
2018-12-22T21:19:05.462Z,90.70
2018-12-22T21:21:33.899Z,90.80
2018-12-22T21:24:02.583Z,90.60
2018-12-22T21:26:31.153Z,89.20
2018-12-22T21:28:59.718Z,89.90
2018-12-22T21:31:28.147Z,89.60
2018-12-22T21:33:56.688Z,89.40
2018-12-22T21:36:25.210Z,90.30
2018-12-22T21:38:53.631Z,91.30
2018-12-22T21:41:22.994Z,91.20
2018-12-22T21:43:51.869Z,91.70
2018-12-22T21:46:20.435Z,92.50
2018-12-22T21:48:48.902Z,93.40
2018-12-22T21:51:17.392Z,94.00
2018-12-22T21:53:45.891Z,94.20
2018-12-22T21:56:14.509Z,94.20
2018-12-22T21:58:42.954Z,94.40
2018-12-22T22:01:11.736Z,94.60
2018-12-22T22:03:40.204Z,94.40
2018-12-22T22:06:08.630Z,93.90
2018-12-22T22:08:37.052Z,93.20
2018-12-22T22:11:05.459Z,93.00
2018-12-22T22:13:33.933Z,92.40
2018-12-22T22:16:02.442Z,91.60
2018-12-22T22:18:30.878Z,91.60
2018-12-22T22:20:59.238Z,92.00
2018-12-22T22:23:27.737Z,92.20
2018-12-22T22:25:57.106Z,90.60
2018-12-22T22:28:25.795Z,91.50
2018-12-22T22:30:54.250Z,92.10
2018-12-22T22:33:22.797Z,92.70
2018-12-22T22:35:51.261Z,93.30
2018-12-22T22:38:20.418Z,93.70
2018-12-22T22:40:48.879Z,94.20
2018-12-22T22:43:17.488Z,94.80
2018-12-22T22:45:45.992Z,95.10
2018-12-22T22:48:14.587Z,95.10
2018-12-22T22:50:43.010Z,95.40
2018-12-22T22:53:11.651Z,96.40
2018-12-22T22:55:40.093Z,96.90
2018-12-22T22:58:08.505Z,96.80
2018-12-22T23:00:37.534Z,97.50
2018-12-22T23:03:07.780Z,98.40
2018-12-22T23:05:36.349Z,99.40
2018-12-22T23:08:04.855Z,99.80
2018-12-22T23:10:33.406Z,99.80
2018-12-22T23:13:01.859Z,99.80
2018-12-22T23:15:30.723Z,99.80
2018-12-22T23:17:59.679Z,99.80
2018-12-22T23:20:28.060Z,99.10
2018-12-22T23:22:56.529Z,98.50
2018-12-22T23:25:24.991Z,98.40
2018-12-22T23:27:54.305Z,98.40
2018-12-22T23:30:23.110Z,98.70
2018-12-22T23:32:51.471Z,98.60
2018-12-22T23:35:21.971Z,98.30
2018-12-22T23:37:50.842Z,98.20
2018-12-22T23:40:19.280Z,97.90
2018-12-22T23:42:48.011Z,98.00
2018-12-22T23:45:16.425Z,97.80
2018-12-22T23:47:44.907Z,97.60
2018-12-22T23:50:13.543Z,97.40
2018-12-22T23:52:43.591Z,97.20
2018-12-22T23:55:13.462Z,97.40
2018-12-22T23:57:44.527Z,97.70
